PIC Brief
Powered by WingX® Technology

WingX Pro7 for iPad now with IAP Routing   Click for AppStore

Airport Status Wx Images Instructions Send feedback
Apt, Navaid, Fix, Name, City, Route, FAR:
N-Number:

10CO - Mack Mesa

Communications
Location
Sectional:Denver
State:Colorado (CO)
City:3nm N of Mack
Latitude:39' 16" 5.200°N [39.268111°]
Longitude:108' 51" 50.500°W [-108.864028°]
Elevation:4,724'
Variation:13E
Map  Satellite  Hybrid
Attendance
All months, All days, Daylight
Services
Fuel Available:100LL
Airframe Repair:Major
Powerplant Repair:Major
Bottled Oxygen:None
Bulk Oxygen:None
Runways
7/252,600' x 60'Asphalt
Comments

Tower Comments

None

Comments

None
Charts
10CO Information
Temperature: 4°C (40°F)
Dewpoint: -1°C (31°F)
Density Altitude:3931' (-793')
Hover over METAR or TAF to decode
METAR [18nm away]
KGJT 221553Z 10005KT 10SM CLR 04/M01 A3049 RMK AO2 SLP319 T00441006
TAF [18nm away]
KGJT 221120Z 2212/2312 10005KT P6SM FEW140 SCT200
FM222100 32004KT P6SM FEW120 FEW250
FM230200 06004KT P6SM FEW120 FEW250
FM230600 10005KT P6SM FEW120 FEW250
NOTAMS
Click here

RADAR

Satellite

VFR Sectional

IFR Chart

AIRMETs
John! Good to see you. I see the wife still picks your ties.
Copyright© Hilton Software LLC 2008-2016